AAL814 KPDX-KSLC
Flight info
| Callsign | AAL814 |
|---|---|
| Flight time | 1h 16m |
| Altitude | 33000 |
| Route | WHAMY5 IMB J15 BOI BYI SKEES6 |
| Aircraft | A321/M-SDE3FGHIRWY/LB1 |
Departure
| Time | 2026-05-07 19:11 |
|---|---|
| Airport | Portland International Airport (KPDX) |
Arrival
| Time | 2026-05-07 20:28 |
|---|---|
| Airport | Salt Lake City International Airport (KSLC) |
| Time | Latitude | Longitude | Altitude | Speed | Heading |
|---|---|---|---|---|---|
| 2026-05-07 18:47 | 45.58981 | -122.59737 | 29 ft | 0 kts | 209° |
| 2026-05-07 19:02 | 45.58983 | -122.59736 | 29 ft | 2 kts | 209° |
| 2026-05-07 19:02 | 45.59007 | -122.59721 | 29 ft | 4 kts | 191° |
| 2026-05-07 19:03 | 45.59034 | -122.59718 | 29 ft | 4 kts | 179° |
| 2026-05-07 19:03 | 45.59055 | -122.59717 | 29 ft | 4 kts | 238° |
| 2026-05-07 19:03 | 45.59060 | -122.59730 | 29 ft | 0 kts | 300° |
| 2026-05-07 19:05 | 45.59060 | -122.59731 | 29 ft | 0 kts | 300° |
| 2026-05-07 19:05 | 45.59068 | -122.59749 | 29 ft | 5 kts | 300° |
| 2026-05-07 19:06 | 45.59098 | -122.59824 | 29 ft | 13 kts | 300° |
| 2026-05-07 19:06 | 45.59102 | -122.60087 | 28 ft | 15 kts | 220° |
| 2026-05-07 19:06 | 45.59008 | -122.60167 | 28 ft | 16 kts | 208° |
| 2026-05-07 19:07 | 45.58905 | -122.60224 | 28 ft | 16 kts | 166° |
| 2026-05-07 19:07 | 45.58843 | -122.60098 | 29 ft | 16 kts | 119° |
| 2026-05-07 19:07 | 45.58788 | -122.59953 | 29 ft | 17 kts | 119° |
| 2026-05-07 19:07 | 45.58722 | -122.59784 | 29 ft | 21 kts | 119° |
| 2026-05-07 19:08 | 45.58652 | -122.59602 | 29 ft | 21 kts | 119° |
| 2026-05-07 19:08 | 45.58580 | -122.59416 | 28 ft | 22 kts | 118° |
| 2026-05-07 19:08 | 45.58531 | -122.59290 | 28 ft | 22 kts | 118° |
| 2026-05-07 19:08 | 45.58431 | -122.59032 | 28 ft | 22 kts | 120° |
| 2026-05-07 19:09 | 45.58379 | -122.58905 | 28 ft | 22 kts | 120° |
| 2026-05-07 19:09 | 45.58302 | -122.58712 | 29 ft | 23 kts | 119° |
| 2026-05-07 19:09 | 45.58227 | -122.58517 | 29 ft | 20 kts | 119° |
| 2026-05-07 19:09 | 45.58161 | -122.58366 | 28 ft | 14 kts | 141° |
| 2026-05-07 19:10 | 45.58079 | -122.58400 | 28 ft | 13 kts | 234° |
| 2026-05-07 19:10 | 45.58096 | -122.58503 | 29 ft | 11 kts | 300° |
| 2026-05-07 19:10 | 45.58214 | -122.58801 | 30 ft | 70 kts | 299° |
| 2026-05-07 19:10 | 45.58562 | -122.59695 | 30 ft | 134 kts | 299° |
| 2026-05-07 19:11 | 45.59106 | -122.61087 | 82 ft | 181 kts | 300° |
| 2026-05-07 19:11 | 45.59736 | -122.62682 | 767 ft | 183 kts | 300° |
| 2026-05-07 19:11 | 45.60395 | -122.64243 | 1602 ft | 185 kts | 301° |
| 2026-05-07 19:11 | 45.61086 | -122.65829 | 2278 ft | 192 kts | 302° |
| 2026-05-07 19:12 | 45.61816 | -122.67479 | 2655 ft | 203 kts | 302° |
| 2026-05-07 19:12 | 45.62586 | -122.69268 | 2927 ft | 218 kts | 301° |
| 2026-05-07 19:12 | 45.63394 | -122.71218 | 3150 ft | 240 kts | 300° |
| 2026-05-07 19:12 | 45.64252 | -122.73354 | 3619 ft | 251 kts | 299° |
| 2026-05-07 19:13 | 45.65113 | -122.75536 | 4331 ft | 253 kts | 299° |
| 2026-05-07 19:13 | 45.65982 | -122.77742 | 5014 ft | 257 kts | 300° |
| 2026-05-07 19:13 | 45.66731 | -122.80095 | 5600 ft | 265 kts | 285° |
| 2026-05-07 19:13 | 45.66937 | -122.82722 | 6298 ft | 269 kts | 267° |
| 2026-05-07 19:14 | 45.66579 | -122.85358 | 7029 ft | 272 kts | 253° |
| 2026-05-07 19:14 | 45.66013 | -122.87948 | 7704 ft | 274 kts | 254° |
| 2026-05-07 19:14 | 45.65184 | -122.90368 | 8331 ft | 279 kts | 231° |
| 2026-05-07 19:14 | 45.63624 | -122.92038 | 8930 ft | 287 kts | 202° |
| 2026-05-07 19:15 | 45.61607 | -122.92402 | 9557 ft | 296 kts | 172° |
| 2026-05-07 19:15 | 45.59600 | -122.91668 | 10173 ft | 301 kts | 166° |
| 2026-05-07 19:15 | 45.57562 | -122.90765 | 10352 ft | 322 kts | 160° |
| 2026-05-07 19:15 | 45.55531 | -122.89188 | 10478 ft | 344 kts | 144° |
| 2026-05-07 19:16 | 45.53744 | -122.86787 | 10599 ft | 365 kts | 129° |
| 2026-05-07 19:16 | 45.52387 | -122.83633 | 10715 ft | 383 kts | 114° |
| 2026-05-07 19:16 | 45.51297 | -122.80087 | 10963 ft | 397 kts | 114° |
| 2026-05-07 19:16 | 45.50177 | -122.76457 | 11449 ft | 402 kts | 114° |
| 2026-05-07 19:17 | 45.49042 | -122.72791 | 11952 ft | 407 kts | 114° |
| 2026-05-07 19:17 | 45.47891 | -122.69080 | 12426 ft | 412 kts | 114° |
| 2026-05-07 19:17 | 45.46724 | -122.65332 | 12960 ft | 416 kts | 114° |
| 2026-05-07 19:17 | 45.45545 | -122.61552 | 13496 ft | 420 kts | 114° |
| 2026-05-07 19:18 | 45.44351 | -122.57740 | 14032 ft | 423 kts | 114° |
| 2026-05-07 19:18 | 45.43145 | -122.53895 | 14505 ft | 427 kts | 114° |
| 2026-05-07 19:18 | 45.41931 | -122.50022 | 15006 ft | 430 kts | 114° |
| 2026-05-07 19:18 | 45.40709 | -122.46120 | 15509 ft | 433 kts | 114° |
| 2026-05-07 19:19 | 45.39478 | -122.42192 | 16042 ft | 436 kts | 114° |
| 2026-05-07 19:19 | 45.38237 | -122.38241 | 16527 ft | 439 kts | 114° |
| 2026-05-07 19:19 | 45.36986 | -122.34264 | 16975 ft | 443 kts | 114° |
| 2026-05-07 19:19 | 45.35724 | -122.30253 | 17428 ft | 446 kts | 114° |
| 2026-05-07 19:20 | 45.34449 | -122.26211 | 17884 ft | 449 kts | 114° |
| 2026-05-07 19:20 | 45.33161 | -122.22154 | 18326 ft | 452 kts | 114° |
| 2026-05-07 19:20 | 45.31863 | -122.18072 | 18722 ft | 455 kts | 114° |
| 2026-05-07 19:20 | 45.30556 | -122.13966 | 19093 ft | 457 kts | 114° |
| 2026-05-07 19:21 | 45.29242 | -122.09841 | 19457 ft | 460 kts | 114° |
| 2026-05-07 19:21 | 45.27919 | -122.05690 | 19816 ft | 463 kts | 114° |
| 2026-05-07 19:21 | 45.26586 | -122.01512 | 20164 ft | 465 kts | 114° |
| 2026-05-07 19:21 | 45.25251 | -121.97314 | 20508 ft | 468 kts | 114° |
| 2026-05-07 19:22 | 45.24003 | -121.93031 | 20836 ft | 471 kts | 111° |
| 2026-05-07 19:22 | 45.22877 | -121.88727 | 21178 ft | 473 kts | 109° |
| 2026-05-07 19:22 | 45.21798 | -121.84302 | 21507 ft | 476 kts | 108° |
| 2026-05-07 19:22 | 45.20740 | -121.79850 | 21850 ft | 478 kts | 108° |
| 2026-05-07 19:23 | 45.19666 | -121.75372 | 22185 ft | 481 kts | 108° |
| 2026-05-07 19:23 | 45.18558 | -121.70887 | 22506 ft | 483 kts | 109° |
| 2026-05-07 19:23 | 45.17415 | -121.66403 | 22831 ft | 485 kts | 109° |
| 2026-05-07 19:23 | 45.16245 | -121.61903 | 23150 ft | 488 kts | 110° |
| 2026-05-07 19:24 | 45.15059 | -121.57389 | 23468 ft | 490 kts | 110° |
| 2026-05-07 19:24 | 45.13865 | -121.52853 | 23735 ft | 493 kts | 110° |
| 2026-05-07 19:24 | 45.12668 | -121.48293 | 23994 ft | 495 kts | 109° |
| 2026-05-07 19:24 | 45.11472 | -121.43718 | 24291 ft | 496 kts | 109° |
| 2026-05-07 19:25 | 45.10279 | -121.39132 | 24574 ft | 497 kts | 109° |
| 2026-05-07 19:25 | 45.09083 | -121.34530 | 24842 ft | 499 kts | 109° |
| 2026-05-07 19:25 | 45.07881 | -121.29920 | 25120 ft | 501 kts | 109° |
| 2026-05-07 19:25 | 45.06666 | -121.25290 | 25404 ft | 503 kts | 109° |
| 2026-05-07 19:26 | 45.05443 | -121.20648 | 25666 ft | 504 kts | 109° |
| 2026-05-07 19:26 | 45.04214 | -121.15995 | 25972 ft | 505 kts | 109° |
| 2026-05-07 19:26 | 45.02988 | -121.11353 | 26339 ft | 503 kts | 109° |
| 2026-05-07 19:26 | 45.01763 | -121.06728 | 26692 ft | 503 kts | 109° |
| 2026-05-07 19:27 | 45.00534 | -121.02099 | 27047 ft | 502 kts | 109° |
| 2026-05-07 19:27 | 44.99307 | -120.97487 | 27411 ft | 502 kts | 109° |
| 2026-05-07 19:27 | 44.98080 | -120.92874 | 27765 ft | 501 kts | 109° |
| 2026-05-07 19:27 | 44.96857 | -120.88268 | 28124 ft | 501 kts | 109° |
| 2026-05-07 19:28 | 44.95633 | -120.83671 | 28493 ft | 500 kts | 110° |
| 2026-05-07 19:28 | 44.94402 | -120.79072 | 28819 ft | 501 kts | 109° |
| 2026-05-07 19:28 | 44.93164 | -120.74468 | 29103 ft | 503 kts | 110° |
| 2026-05-07 19:28 | 44.91920 | -120.69857 | 29422 ft | 503 kts | 110° |
| 2026-05-07 19:29 | 44.90676 | -120.65250 | 29782 ft | 503 kts | 110° |
| 2026-05-07 19:29 | 44.89433 | -120.60641 | 30141 ft | 502 kts | 110° |
| 2026-05-07 19:29 | 44.88195 | -120.56045 | 30443 ft | 501 kts | 110° |
| 2026-05-07 19:29 | 44.86956 | -120.51454 | 30733 ft | 501 kts | 110° |
| 2026-05-07 19:30 | 44.85713 | -120.46871 | 31005 ft | 500 kts | 110° |
| 2026-05-07 19:30 | 44.84470 | -120.42295 | 31287 ft | 500 kts | 110° |
| 2026-05-07 19:30 | 44.83242 | -120.37779 | 31568 ft | 500 kts | 110° |
| 2026-05-07 19:30 | 44.81998 | -120.33211 | 31852 ft | 499 kts | 110° |
| 2026-05-07 19:31 | 44.80754 | -120.28650 | 32134 ft | 499 kts | 110° |
| 2026-05-07 19:31 | 44.79507 | -120.24093 | 32413 ft | 499 kts | 110° |
| 2026-05-07 19:31 | 44.78258 | -120.19536 | 32674 ft | 499 kts | 110° |
| 2026-05-07 19:31 | 44.77007 | -120.14984 | 32941 ft | 499 kts | 110° |
| 2026-05-07 19:32 | 44.75747 | -120.10417 | 33055 ft | 502 kts | 110° |
| 2026-05-07 19:32 | 44.74483 | -120.05840 | 33067 ft | 503 kts | 110° |
| 2026-05-07 19:32 | 44.71944 | -119.96662 | 33070 ft | 503 kts | 110° |
| 2026-05-07 19:33 | 44.69397 | -119.87492 | 33069 ft | 504 kts | 110° |
| 2026-05-07 19:33 | 44.66837 | -119.78330 | 33070 ft | 504 kts | 110° |
| 2026-05-07 19:34 | 44.64269 | -119.69177 | 33075 ft | 504 kts | 110° |
| 2026-05-07 19:34 | 44.61644 | -119.60060 | 33060 ft | 504 kts | 111° |
| 2026-05-07 19:35 | 44.58967 | -119.50970 | 33083 ft | 504 kts | 111° |
| 2026-05-07 19:35 | 44.56280 | -119.41868 | 33070 ft | 505 kts | 111° |
| 2026-05-07 19:36 | 44.53595 | -119.32752 | 33062 ft | 506 kts | 111° |
| 2026-05-07 19:36 | 44.50905 | -119.23631 | 33069 ft | 507 kts | 111° |
| 2026-05-07 19:37 | 44.48202 | -119.14510 | 33081 ft | 507 kts | 111° |
| 2026-05-07 19:37 | 44.45488 | -119.05398 | 33081 ft | 507 kts | 111° |
| 2026-05-07 19:38 | 44.42767 | -118.96289 | 33075 ft | 507 kts | 111° |
| 2026-05-07 19:38 | 44.40046 | -118.87180 | 33104 ft | 507 kts | 111° |
| 2026-05-07 19:39 | 44.37330 | -118.78136 | 33088 ft | 508 kts | 111° |
| 2026-05-07 19:39 | 44.34581 | -118.69039 | 33088 ft | 509 kts | 111° |
| 2026-05-07 19:40 | 44.31822 | -118.59938 | 33083 ft | 509 kts | 111° |
| 2026-05-07 19:40 | 44.29065 | -118.50838 | 33078 ft | 509 kts | 111° |
| 2026-05-07 19:41 | 44.26291 | -118.41752 | 33072 ft | 509 kts | 111° |
| 2026-05-07 19:41 | 44.23500 | -118.32671 | 33060 ft | 509 kts | 111° |
| 2026-05-07 19:42 | 44.20709 | -118.23596 | 33080 ft | 510 kts | 111° |
| 2026-05-07 19:42 | 44.17914 | -118.14513 | 33061 ft | 510 kts | 111° |
| 2026-05-07 19:43 | 44.15102 | -118.05426 | 33047 ft | 511 kts | 111° |
| 2026-05-07 19:43 | 44.12279 | -117.96340 | 33047 ft | 511 kts | 111° |
| 2026-05-07 19:44 | 44.09471 | -117.87317 | 33036 ft | 512 kts | 111° |
| 2026-05-07 19:44 | 44.06634 | -117.78245 | 33031 ft | 512 kts | 111° |
| 2026-05-07 19:45 | 44.03782 | -117.69176 | 33040 ft | 512 kts | 112° |
| 2026-05-07 19:45 | 44.00932 | -117.60109 | 33060 ft | 512 kts | 111° |
| 2026-05-07 19:46 | 43.98075 | -117.51052 | 33045 ft | 512 kts | 111° |
| 2026-05-07 19:46 | 43.95202 | -117.41995 | 33040 ft | 513 kts | 112° |
| 2026-05-07 19:47 | 43.92319 | -117.32943 | 33038 ft | 513 kts | 112° |
| 2026-05-07 19:47 | 43.89429 | -117.23901 | 33038 ft | 513 kts | 112° |
| 2026-05-07 19:48 | 43.86542 | -117.14861 | 33060 ft | 513 kts | 112° |
| 2026-05-07 19:48 | 43.83649 | -117.05834 | 33055 ft | 512 kts | 112° |
| 2026-05-07 19:49 | 43.80741 | -116.96826 | 33072 ft | 512 kts | 112° |
| 2026-05-07 19:49 | 43.77821 | -116.87825 | 33060 ft | 513 kts | 112° |
| 2026-05-07 19:50 | 43.74894 | -116.78829 | 33069 ft | 513 kts | 112° |
| 2026-05-07 19:50 | 43.71958 | -116.69839 | 33073 ft | 513 kts | 112° |
| 2026-05-07 19:51 | 43.69018 | -116.60855 | 33074 ft | 513 kts | 112° |
| 2026-05-07 19:51 | 43.66086 | -116.51871 | 33075 ft | 513 kts | 112° |
| 2026-05-07 19:52 | 43.63152 | -116.42966 | 33062 ft | 513 kts | 112° |
| 2026-05-07 19:52 | 43.60188 | -116.33998 | 33064 ft | 514 kts | 112° |
| 2026-05-07 19:53 | 43.57213 | -116.25021 | 33049 ft | 515 kts | 112° |
| 2026-05-07 19:53 | 43.54161 | -116.16091 | 33085 ft | 516 kts | 115° |
| 2026-05-07 19:54 | 43.50733 | -116.07394 | 33076 ft | 517 kts | 118° |
| 2026-05-07 19:54 | 43.47112 | -115.98839 | 33056 ft | 517 kts | 119° |
| 2026-05-07 19:55 | 43.43538 | -115.90255 | 33037 ft | 516 kts | 118° |
| 2026-05-07 19:55 | 43.40055 | -115.81620 | 33016 ft | 516 kts | 117° |
| 2026-05-07 19:56 | 43.36581 | -115.72989 | 33009 ft | 516 kts | 117° |
| 2026-05-07 19:56 | 43.33072 | -115.64382 | 33011 ft | 516 kts | 118° |
| 2026-05-07 19:57 | 43.29543 | -115.55792 | 33010 ft | 516 kts | 118° |
| 2026-05-07 19:57 | 43.26008 | -115.47214 | 33009 ft | 516 kts | 118° |
| 2026-05-07 19:58 | 43.22472 | -115.38635 | 33010 ft | 516 kts | 118° |
| 2026-05-07 19:58 | 43.18939 | -115.30077 | 33006 ft | 516 kts | 118° |
| 2026-05-07 19:59 | 43.15996 | -115.22972 | 33005 ft | 516 kts | 118° |
| 2026-05-07 19:59 | 43.11867 | -115.13048 | 33010 ft | 516 kts | 118° |
| 2026-05-07 20:00 | 43.08307 | -115.04524 | 33045 ft | 516 kts | 118° |
| 2026-05-07 20:00 | 43.05314 | -114.97377 | 33058 ft | 517 kts | 118° |
| 2026-05-07 20:01 | 43.01764 | -114.88904 | 33083 ft | 517 kts | 118° |
| 2026-05-07 20:01 | 42.98182 | -114.80379 | 33097 ft | 517 kts | 118° |
| 2026-05-07 20:02 | 42.94587 | -114.71869 | 33092 ft | 517 kts | 118° |
| 2026-05-07 20:02 | 42.90992 | -114.63362 | 33092 ft | 517 kts | 118° |
| 2026-05-07 20:03 | 42.87393 | -114.54871 | 33067 ft | 517 kts | 118° |
| 2026-05-07 20:03 | 42.83786 | -114.46392 | 33106 ft | 517 kts | 118° |
| 2026-05-07 20:04 | 42.80168 | -114.37922 | 33097 ft | 518 kts | 118° |
| 2026-05-07 20:04 | 42.78356 | -114.33683 | 32984 ft | 518 kts | 118° |
| 2026-05-07 20:04 | 42.76544 | -114.29448 | 32983 ft | 518 kts | 118° |
| 2026-05-07 20:05 | 42.72910 | -114.20983 | 32974 ft | 518 kts | 119° |
| 2026-05-07 20:05 | 42.69268 | -114.12538 | 33002 ft | 518 kts | 119° |
| 2026-05-07 20:06 | 42.65623 | -114.04104 | 33028 ft | 517 kts | 119° |
| 2026-05-07 20:06 | 42.61996 | -113.95742 | 33052 ft | 517 kts | 119° |
| 2026-05-07 20:07 | 42.58216 | -113.87437 | 33073 ft | 518 kts | 126° |
| 2026-05-07 20:07 | 42.53333 | -113.80271 | 33094 ft | 518 kts | 136° |
| 2026-05-07 20:08 | 42.48207 | -113.73410 | 33077 ft | 518 kts | 136° |
| 2026-05-07 20:08 | 42.43075 | -113.66550 | 33050 ft | 518 kts | 135° |
| 2026-05-07 20:09 | 42.37941 | -113.59695 | 33027 ft | 518 kts | 135° |
| 2026-05-07 20:10 | 42.30235 | -113.49451 | 32995 ft | 518 kts | 135° |
| 2026-05-07 20:10 | 42.25093 | -113.42629 | 33019 ft | 518 kts | 136° |
| 2026-05-07 20:11 | 42.19941 | -113.35817 | 32991 ft | 519 kts | 136° |
| 2026-05-07 20:11 | 42.14779 | -113.29012 | 32980 ft | 519 kts | 136° |
| 2026-05-07 20:12 | 42.09610 | -113.22208 | 32983 ft | 519 kts | 136° |
| 2026-05-07 20:12 | 42.04441 | -113.15420 | 32975 ft | 519 kts | 136° |
| 2026-05-07 20:13 | 41.99268 | -113.08648 | 32989 ft | 519 kts | 136° |
| 2026-05-07 20:13 | 41.96675 | -113.05257 | 32579 ft | 521 kts | 136° |
| 2026-05-07 20:13 | 41.94056 | -113.01831 | 31406 ft | 531 kts | 136° |
| 2026-05-07 20:13 | 41.91401 | -112.98362 | 30450 ft | 535 kts | 136° |
| 2026-05-07 20:14 | 41.88728 | -112.94879 | 29661 ft | 534 kts | 136° |
| 2026-05-07 20:14 | 41.86059 | -112.91409 | 28664 ft | 535 kts | 136° |
| 2026-05-07 20:14 | 41.83385 | -112.87938 | 27695 ft | 535 kts | 136° |
| 2026-05-07 20:14 | 41.80705 | -112.84463 | 26711 ft | 536 kts | 136° |
| 2026-05-07 20:15 | 41.78021 | -112.80983 | 25698 ft | 538 kts | 136° |
| 2026-05-07 20:15 | 41.75330 | -112.77495 | 24682 ft | 539 kts | 136° |
| 2026-05-07 20:15 | 41.72632 | -112.74002 | 23702 ft | 539 kts | 136° |
| 2026-05-07 20:15 | 41.69954 | -112.70540 | 23051 ft | 530 kts | 136° |
| 2026-05-07 20:16 | 41.67320 | -112.67140 | 22377 ft | 523 kts | 137° |
| 2026-05-07 20:16 | 41.64714 | -112.63788 | 21672 ft | 516 kts | 137° |
| 2026-05-07 20:16 | 41.62157 | -112.60502 | 20684 ft | 501 kts | 137° |
| 2026-05-07 20:16 | 41.59635 | -112.57260 | 19575 ft | 504 kts | 137° |
| 2026-05-07 20:17 | 41.57133 | -112.54043 | 19012 ft | 496 kts | 137° |
| 2026-05-07 20:17 | 41.54678 | -112.50888 | 18190 ft | 481 kts | 137° |
| 2026-05-07 20:17 | 41.52274 | -112.47819 | 16887 ft | 480 kts | 139° |
| 2026-05-07 20:17 | 41.49824 | -112.44834 | 16291 ft | 472 kts | 140° |
| 2026-05-07 20:18 | 41.47413 | -112.42013 | 15631 ft | 464 kts | 141° |
| 2026-05-07 20:18 | 41.44981 | -112.39237 | 14962 ft | 458 kts | 140° |
| 2026-05-07 20:18 | 41.42712 | -112.36287 | 14312 ft | 453 kts | 136° |
| 2026-05-07 20:18 | 41.40502 | -112.33240 | 13686 ft | 449 kts | 135° |
| 2026-05-07 20:19 | 41.38397 | -112.30285 | 13120 ft | 442 kts | 135° |
| 2026-05-07 20:19 | 41.36336 | -112.27354 | 12984 ft | 421 kts | 134° |
| 2026-05-07 20:19 | 41.34423 | -112.24614 | 12688 ft | 388 kts | 134° |
| 2026-05-07 20:19 | 41.32654 | -112.22084 | 12468 ft | 358 kts | 134° |
| 2026-05-07 20:20 | 41.31018 | -112.19754 | 12177 ft | 335 kts | 135° |
| 2026-05-07 20:20 | 41.29445 | -112.17525 | 11561 ft | 326 kts | 135° |
| 2026-05-07 20:20 | 41.27888 | -112.15330 | 11094 ft | 326 kts | 135° |
| 2026-05-07 20:20 | 41.26351 | -112.13170 | 10997 ft | 317 kts | 135° |
| 2026-05-07 20:21 | 41.24833 | -112.11044 | 11010 ft | 317 kts | 136° |
| 2026-05-07 20:21 | 41.23312 | -112.08921 | 11018 ft | 317 kts | 137° |
| 2026-05-07 20:21 | 41.21621 | -112.07073 | 11018 ft | 314 kts | 151° |
| 2026-05-07 20:21 | 41.19733 | -112.05632 | 11018 ft | 313 kts | 154° |
| 2026-05-07 20:22 | 41.17836 | -112.04207 | 11021 ft | 313 kts | 154° |
| 2026-05-07 20:22 | 41.15944 | -112.02785 | 11021 ft | 312 kts | 155° |
| 2026-05-07 20:22 | 41.13943 | -112.01729 | 11022 ft | 308 kts | 169° |
| 2026-05-07 20:22 | 41.11821 | -112.01281 | 10539 ft | 310 kts | 179° |
| 2026-05-07 20:23 | 41.09692 | -112.01049 | 10300 ft | 304 kts | 179° |
| 2026-05-07 20:23 | 41.07602 | -112.00814 | 9669 ft | 300 kts | 179° |
| 2026-05-07 20:23 | 41.05540 | -112.00578 | 9054 ft | 293 kts | 179° |
| 2026-05-07 20:23 | 41.03532 | -112.00343 | 8608 ft | 284 kts | 179° |
| 2026-05-07 20:24 | 41.01597 | -112.00120 | 8248 ft | 277 kts | 180° |
| 2026-05-07 20:24 | 40.99675 | -111.99900 | 7891 ft | 277 kts | 179° |
| 2026-05-07 20:24 | 40.97764 | -111.99677 | 7526 ft | 273 kts | 179° |
| 2026-05-07 20:24 | 40.95918 | -111.99459 | 7177 ft | 260 kts | 180° |
| 2026-05-07 20:25 | 40.94156 | -111.99252 | 6878 ft | 248 kts | 179° |
| 2026-05-07 20:25 | 40.92456 | -111.99055 | 6583 ft | 242 kts | 179° |
| 2026-05-07 20:25 | 40.90801 | -111.98863 | 6301 ft | 236 kts | 178° |
| 2026-05-07 20:25 | 40.89175 | -111.98674 | 6000 ft | 233 kts | 178° |
| 2026-05-07 20:26 | 40.87634 | -111.98493 | 5718 ft | 209 kts | 178° |
| 2026-05-07 20:26 | 40.86259 | -111.98332 | 5410 ft | 189 kts | 178° |
| 2026-05-07 20:26 | 40.85017 | -111.98183 | 5163 ft | 173 kts | 179° |
| 2026-05-07 20:26 | 40.83855 | -111.98051 | 4883 ft | 164 kts | 178° |
| 2026-05-07 20:27 | 40.82742 | -111.97935 | 4628 ft | 161 kts | 176° |
| 2026-05-07 20:27 | 40.81620 | -111.97802 | 4444 ft | 162 kts | 175° |
| 2026-05-07 20:27 | 40.80501 | -111.97669 | 4243 ft | 160 kts | 175° |
| 2026-05-07 20:27 | 40.79502 | -111.97552 | 4231 ft | 127 kts | 175° |
| 2026-05-07 20:28 | 40.78926 | -111.97483 | 4232 ft | 39 kts | 175° |
| 2026-05-07 20:28 | 40.78741 | -111.97459 | 4232 ft | 26 kts | 174° |
| 2026-05-07 20:28 | 40.78632 | -111.97508 | 4231 ft | 11 kts | 265° |
| 2026-05-07 20:28 | 40.78628 | -111.97565 | 4231 ft | 0 kts | 264° |
| 2026-05-07 20:29 | 40.78627 | -111.97586 | 4231 ft | 5 kts | 265° |
| 2026-05-07 20:29 | 40.78644 | -111.97651 | 4230 ft | 10 kts | 313° |
| 2026-05-07 20:29 | 40.78715 | -111.97678 | 4231 ft | 12 kts | 352° |
| 2026-05-07 20:29 | 40.78754 | -111.97752 | 4231 ft | 12 kts | 267° |
| 2026-05-07 20:30 | 40.78748 | -111.97868 | 4231 ft | 13 kts | 265° |
| 2026-05-07 20:30 | 40.78705 | -111.97934 | 4231 ft | 5 kts | 179° |
| 2026-05-07 20:30 | 40.78670 | -111.97931 | 4231 ft | 4 kts | 175° |
| 2026-05-07 20:30 | 40.78659 | -111.97930 | 4231 ft | 0 kts | 175° |